createdAt,value
2022-08-20T00:02:10.742Z,17.10
2022-08-20T00:04:39.526Z,20.40
2022-08-20T00:07:07.434Z,16.10
2022-08-20T00:09:36.450Z,13.90
2022-08-20T00:12:06.502Z,14.10
2022-08-20T00:14:34.317Z,12.10
2022-08-20T00:17:02.604Z,17.10
2022-08-20T00:19:29.789Z,16.10
2022-08-20T00:21:58.021Z,14.50
2022-08-20T00:24:26.373Z,18.40
2022-08-20T00:26:53.149Z,16.00
2022-08-20T00:29:20.778Z,20.00
2022-08-20T00:31:50.651Z,16.10
2022-08-20T00:34:17.605Z,21.80
2022-08-20T00:36:44.531Z,20.90
2022-08-20T00:39:11.363Z,15.90
2022-08-20T00:41:38.272Z,17.90
2022-08-20T00:44:07.244Z,18.40
2022-08-20T00:46:34.646Z,15.20
2022-08-20T00:49:03.844Z,15.20
2022-08-20T00:51:34.040Z,12.90
2022-08-20T00:54:07.011Z,15.40
2022-08-20T00:56:34.536Z,18.10
2022-08-20T00:59:02.185Z,15.80
2022-08-20T01:01:29.851Z,14.80
2022-08-20T01:03:57.837Z,14.30
2022-08-20T01:06:25.393Z,12.40
2022-08-20T01:08:52.857Z,12.00
2022-08-20T01:11:22.820Z,14.20
2022-08-20T01:13:50.985Z,12.30
2022-08-20T01:16:28.102Z,11.90
2022-08-20T01:18:57.697Z,13.90
2022-08-20T01:21:32.399Z,14.60
2022-08-20T01:24:08.000Z,11.00
2022-08-20T01:26:39.776Z,15.00
2022-08-20T01:29:13.544Z,14.20
2022-08-20T01:34:11.691Z,19.70
2022-08-20T01:36:45.957Z,14.90
2022-08-20T01:39:18.142Z,16.80
2022-08-20T01:41:58.121Z,15.50
2022-08-20T01:44:25.146Z,15.30
2022-08-20T01:46:57.606Z,18.20
2022-08-20T01:49:30.319Z,15.40
2022-08-20T01:52:00.895Z,16.60
2022-08-20T01:54:28.489Z,13.30
2022-08-20T01:57:00.668Z,18.50
2022-08-20T01:59:27.894Z,16.30
2022-08-20T02:01:55.906Z,18.60
2022-08-20T02:04:23.389Z,18.50
2022-08-20T02:06:56.664Z,12.40
2022-08-20T02:09:27.098Z,16.80
2022-08-20T02:11:53.941Z,12.40
2022-08-20T02:14:21.530Z,17.40
2022-08-20T02:16:54.459Z,13.30
2022-08-20T02:19:27.361Z,10.40
2022-08-20T02:21:58.796Z,16.10
2022-08-20T02:24:26.089Z,11.80
2022-08-20T02:26:53.396Z,18.90
2022-08-20T02:29:20.783Z,15.30
2022-08-20T02:32:31.188Z,13.00
2022-08-20T02:34:35.902Z,15.70
2022-08-20T02:37:04.316Z,17.80
2022-08-20T02:39:31.198Z,12.90
2022-08-20T02:41:58.060Z,13.60
2022-08-20T02:44:25.006Z,16.00
2022-08-20T02:46:52.065Z,17.60
2022-08-20T02:49:20.143Z,17.80
2022-08-20T02:51:47.416Z,16.30
2022-08-20T02:54:14.823Z,13.90
2022-08-20T02:56:42.320Z,13.70
2022-08-20T02:59:09.162Z,18.40
2022-08-20T03:01:39.444Z,12.10
2022-08-20T03:04:06.670Z,15.00
2022-08-20T03:06:33.520Z,14.30
2022-08-20T03:09:00.980Z,14.10
2022-08-20T03:11:27.826Z,13.80
2022-08-20T03:13:55.359Z,14.20
2022-08-20T03:16:24.375Z,12.90
2022-08-20T03:18:52.048Z,11.90
2022-08-20T03:21:19.204Z,13.10
2022-08-20T03:23:46.174Z,13.40
2022-08-20T03:26:13.551Z,13.80
2022-08-20T03:28:41.419Z,15.30
2022-08-20T03:31:08.936Z,18.10
2022-08-20T03:33:36.318Z,12.50
2022-08-20T03:36:05.896Z,12.30
2022-08-20T03:38:33.600Z,14.20
2022-08-20T03:41:02.170Z,13.00
2022-08-20T03:43:29.514Z,15.60
2022-08-20T03:45:56.608Z,12.70
2022-08-20T03:48:23.578Z,13.30
2022-08-20T03:50:51.134Z,12.40
2022-08-20T03:53:19.167Z,10.50
2022-08-20T03:55:54.005Z,9.70
2022-08-20T03:58:22.040Z,11.30
2022-08-20T04:01:01.389Z,8.90
2022-08-20T04:03:28.798Z,10.50
2022-08-20T04:05:56.069Z,10.30
2022-08-20T04:08:29.606Z,14.10
2022-08-20T04:10:57.942Z,12.10
2022-08-20T04:13:27.329Z,10.70
2022-08-20T04:15:55.608Z,15.50
2022-08-20T04:18:25.827Z,10.90
2022-08-20T04:20:54.169Z,11.70
2022-08-20T04:23:22.359Z,17.90
2022-08-20T04:25:49.800Z,15.50
2022-08-20T04:28:28.800Z,10.50
2022-08-20T04:30:58.674Z,10.30
2022-08-20T04:33:34.255Z,13.40
2022-08-20T04:36:05.819Z,12.90
2022-08-20T04:38:50.647Z,10.30
2022-08-20T04:41:22.998Z,12.70
2022-08-20T04:43:54.146Z,13.30
2022-08-20T04:46:25.936Z,17.10
2022-08-20T04:48:53.642Z,13.90
2022-08-20T04:51:23.226Z,16.80
2022-08-20T04:53:53.883Z,17.30
2022-08-20T04:56:24.365Z,14.80
2022-08-20T04:58:53.831Z,18.40
2022-08-20T05:01:21.002Z,14.70
2022-08-20T05:03:48.022Z,16.40
2022-08-20T05:06:16.986Z,17.00
2022-08-20T05:08:44.908Z,15.60
2022-08-20T05:11:30.097Z,16.50
2022-08-20T05:13:58.958Z,13.50
2022-08-20T05:16:26.766Z,18.20
2022-08-20T05:18:53.629Z,19.60
2022-08-20T05:21:21.925Z,17.50
2022-08-20T05:23:49.543Z,16.30
2022-08-20T05:26:17.260Z,16.40
2022-08-20T05:28:53.867Z,16.70
2022-08-20T05:31:31.457Z,14.70
2022-08-20T05:34:03.210Z,16.90
2022-08-20T05:36:30.110Z,15.90
2022-08-20T05:38:57.054Z,15.50
2022-08-20T05:41:28.435Z,14.20
2022-08-20T05:44:01.502Z,16.40
2022-08-20T05:46:31.635Z,15.20
2022-08-20T05:49:01.969Z,16.00
2022-08-20T05:51:30.216Z,16.20
2022-08-20T05:53:57.662Z,13.20
2022-08-20T05:56:26.962Z,13.30
2022-08-20T05:58:54.352Z,15.60
2022-08-20T06:01:21.808Z,15.60
2022-08-20T06:04:04.381Z,16.40
2022-08-20T06:06:45.526Z,12.90
2022-08-20T06:09:16.625Z,14.70
2022-08-20T06:11:59.676Z,13.20
2022-08-20T06:14:26.767Z,14.80
2022-08-20T06:16:58.014Z,14.80
2022-08-20T06:19:27.177Z,17.10
2022-08-20T06:21:59.987Z,15.80
2022-08-20T06:24:27.078Z,14.90
2022-08-20T06:27:00.313Z,15.40
2022-08-20T06:29:28.456Z,19.00
2022-08-20T06:31:56.116Z,21.00
2022-08-20T06:34:28.413Z,15.50
2022-08-20T06:36:59.694Z,16.40
2022-08-20T06:39:31.423Z,13.50
2022-08-20T06:41:58.947Z,17.40
2022-08-20T06:44:26.091Z,15.50
2022-08-20T06:46:53.059Z,14.30
2022-08-20T06:49:19.941Z,17.90
2022-08-20T06:51:46.760Z,18.10
2022-08-20T06:54:18.947Z,16.90
2022-08-20T06:56:45.788Z,11.20
2022-08-20T06:59:13.249Z,12.90
2022-08-20T07:01:40.157Z,14.00
2022-08-20T07:04:08.548Z,14.50
2022-08-20T07:06:35.351Z,14.90
2022-08-20T07:09:02.263Z,11.00
2022-08-20T07:11:29.227Z,15.40
2022-08-20T07:13:58.500Z,16.70
2022-08-20T07:16:26.334Z,13.90
2022-08-20T07:18:53.349Z,14.00
2022-08-20T07:21:20.181Z,16.50
2022-08-20T07:23:49.585Z,10.70
2022-08-20T07:26:17.433Z,13.90
2022-08-20T07:28:44.230Z,13.90
2022-08-20T07:31:27.294Z,13.10
2022-08-20T07:33:58.370Z,13.10
2022-08-20T07:36:27.416Z,15.80
2022-08-20T07:38:54.786Z,16.40
2022-08-20T07:41:24.312Z,14.10
2022-08-20T07:43:51.208Z,14.70
2022-08-20T07:46:21.714Z,10.90
2022-08-20T07:48:51.789Z,13.70
2022-08-20T07:51:20.700Z,16.90
2022-08-20T07:53:48.660Z,15.10
2022-08-20T07:56:19.372Z,11.10
2022-08-20T07:58:50.715Z,16.70
2022-08-20T08:01:20.421Z,14.60
2022-08-20T08:03:49.602Z,12.50
2022-08-20T08:06:28.667Z,14.40
2022-08-20T08:09:01.703Z,14.20
2022-08-20T08:11:28.588Z,14.00
2022-08-20T08:13:55.441Z,12.80
2022-08-20T08:16:22.447Z,11.80
2022-08-20T08:18:56.431Z,12.70
2022-08-20T08:21:23.771Z,14.70
2022-08-20T08:23:50.904Z,17.20
2022-08-20T08:26:18.885Z,14.50
2022-08-20T08:28:46.751Z,13.50
2022-08-20T08:31:15.050Z,18.40
2022-08-20T08:33:42.662Z,15.50
2022-08-20T08:36:12.670Z,16.80
2022-08-20T08:38:44.325Z,15.40
2022-08-20T08:41:34.120Z,15.40
2022-08-20T08:44:08.359Z,19.60
2022-08-20T08:46:44.625Z,14.40
2022-08-20T08:49:17.879Z,17.70
2022-08-20T08:51:48.814Z,14.20
2022-08-20T08:54:20.271Z,17.20
2022-08-20T08:56:49.663Z,17.10
2022-08-20T08:59:18.591Z,15.20
2022-08-20T09:01:54.055Z,13.10
2022-08-20T09:04:39.934Z,18.90
2022-08-20T09:07:12.015Z,17.40
2022-08-20T09:09:41.920Z,17.90
2022-08-20T09:12:12.479Z,18.50
2022-08-20T09:14:39.493Z,21.40
2022-08-20T09:17:07.322Z,15.70
2022-08-20T09:19:34.243Z,13.90
2022-08-20T09:22:16.127Z,10.10
2022-08-20T09:24:44.550Z,14.70
2022-08-20T09:27:11.736Z,17.40
2022-08-20T09:29:39.302Z,14.90
2022-08-20T09:32:07.457Z,18.20
2022-08-20T09:34:39.838Z,13.30
2022-08-20T09:37:07.954Z,16.50
2022-08-20T09:39:35.458Z,17.50
2022-08-20T09:42:11.798Z,21.00
2022-08-20T09:44:39.507Z,19.70
2022-08-20T09:47:06.597Z,18.10
2022-08-20T09:49:33.770Z,18.20
2022-08-20T09:52:01.766Z,18.20
2022-08-20T09:54:30.338Z,15.40
2022-08-20T09:56:58.664Z,18.90
2022-08-20T09:59:26.644Z,22.30
2022-08-20T10:02:09.379Z,23.30
2022-08-20T10:04:36.340Z,26.00
2022-08-20T10:07:07.572Z,26.20
2022-08-20T10:09:35.966Z,25.60
2022-08-20T10:12:04.073Z,22.40
2022-08-20T10:14:31.424Z,26.70
2022-08-20T10:17:00.165Z,20.80
2022-08-20T10:19:28.774Z,26.80
2022-08-20T10:21:56.203Z,24.90
2022-08-20T10:24:23.522Z,23.70
2022-08-20T10:26:50.688Z,29.80
2022-08-20T10:29:17.518Z,25.10
2022-08-20T10:31:44.408Z,23.20
2022-08-20T10:34:11.252Z,19.20
2022-08-20T10:36:38.039Z,21.50
2022-08-20T10:39:05.074Z,20.80
2022-08-20T10:41:31.982Z,17.40
2022-08-20T10:43:58.947Z,22.80
2022-08-20T10:46:26.166Z,21.70
2022-08-20T10:48:53.411Z,19.70
2022-08-20T10:51:20.289Z,20.10
2022-08-20T10:53:47.285Z,21.80
2022-08-20T10:56:15.758Z,18.30
2022-08-20T10:58:42.794Z,22.40
2022-08-20T11:01:11.536Z,20.20
2022-08-20T11:03:38.398Z,18.90
2022-08-20T11:06:05.360Z,15.90
2022-08-20T11:08:34.445Z,14.20
2022-08-20T11:11:04.319Z,16.00
2022-08-20T11:13:31.212Z,12.30
2022-08-20T11:15:58.045Z,17.50
2022-08-20T11:18:24.937Z,14.60
2022-08-20T11:20:52.379Z,13.60
2022-08-20T11:23:19.354Z,13.60
2022-08-20T11:25:46.310Z,16.20
2022-08-20T11:28:14.044Z,15.50
2022-08-20T11:30:41.438Z,13.40
2022-08-20T11:33:08.547Z,20.50
2022-08-20T11:35:49.042Z,14.70
2022-08-20T11:38:18.623Z,17.90
2022-08-20T11:40:46.960Z,19.20
2022-08-20T11:43:16.318Z,18.10
2022-08-20T11:45:46.423Z,15.10
2022-08-20T11:48:15.650Z,15.10
2022-08-20T11:50:43.427Z,15.80
2022-08-20T11:53:10.407Z,15.60
2022-08-20T11:55:38.638Z,17.70
2022-08-20T11:58:06.575Z,16.50
2022-08-20T12:00:34.251Z,21.90
2022-08-20T12:03:05.146Z,12.90
2022-08-20T12:05:33.149Z,13.60
2022-08-20T12:08:01.516Z,17.30
2022-08-20T12:10:29.426Z,19.40
2022-08-20T12:12:57.695Z,16.40
2022-08-20T12:15:26.873Z,10.90
2022-08-20T12:17:55.007Z,17.40
2022-08-20T12:20:23.052Z,14.90
2022-08-20T12:22:50.946Z,14.10
2022-08-20T12:25:18.463Z,14.10
2022-08-20T12:27:47.524Z,12.80
2022-08-20T12:30:17.650Z,17.70
2022-08-20T12:32:44.958Z,14.70
2022-08-20T12:35:13.750Z,14.50
2022-08-20T12:37:41.565Z,15.90
2022-08-20T12:40:12.987Z,15.40
2022-08-20T12:42:41.094Z,18.00
2022-08-20T12:45:08.886Z,17.60
2022-08-20T12:47:39.019Z,14.00
2022-08-20T12:50:10.050Z,15.60
2022-08-20T12:52:37.874Z,14.70
2022-08-20T12:55:06.612Z,16.70
2022-08-20T12:57:37.969Z,18.50
2022-08-20T13:00:09.350Z,15.80
2022-08-20T13:02:38.916Z,16.90
2022-08-20T13:05:07.040Z,17.20
2022-08-20T13:07:34.370Z,19.30
2022-08-20T13:10:01.780Z,17.00
2022-08-20T13:12:28.655Z,15.80
2022-08-20T13:14:55.672Z,17.90
2022-08-20T13:17:24.349Z,14.50
2022-08-20T13:20:10.176Z,15.00
2022-08-20T13:22:37.262Z,12.90
2022-08-20T13:25:05.739Z,15.90
2022-08-20T13:27:32.827Z,16.80
2022-08-20T13:29:59.706Z,16.50
2022-08-20T13:32:26.749Z,16.30
2022-08-20T13:34:53.682Z,18.10
2022-08-20T13:37:25.618Z,19.40
2022-08-20T13:39:55.424Z,17.60
2022-08-20T13:42:22.490Z,16.20
2022-08-20T13:44:50.293Z,17.90
2022-08-20T13:47:23.568Z,19.10
2022-08-20T13:50:03.328Z,16.30
2022-08-20T13:52:30.926Z,18.20
2022-08-20T13:54:59.184Z,19.40
2022-08-20T13:57:27.265Z,18.80
2022-08-20T13:59:56.902Z,21.40
2022-08-20T14:02:25.556Z,16.10
2022-08-20T14:04:53.856Z,18.30
2022-08-20T14:07:26.712Z,18.70
2022-08-20T14:10:02.442Z,15.10
2022-08-20T14:14:58.311Z,17.70
2022-08-20T14:17:27.968Z,19.10
2022-08-20T14:20:01.196Z,13.70
2022-08-20T14:22:29.691Z,20.70
2022-08-20T14:24:56.841Z,17.70
2022-08-20T14:27:29.100Z,15.60
2022-08-20T14:29:58.623Z,16.30
2022-08-20T14:32:26.295Z,19.40
2022-08-20T14:34:54.113Z,18.20
2022-08-20T14:37:25.695Z,19.20
2022-08-20T14:39:57.018Z,14.70
2022-08-20T14:42:27.058Z,16.40
2022-08-20T14:44:56.014Z,15.40
2022-08-20T14:47:27.777Z,18.10
2022-08-20T14:49:56.471Z,16.60
2022-08-20T14:52:24.583Z,21.60
2022-08-20T14:54:55.326Z,21.30
2022-08-20T14:57:22.279Z,19.00
2022-08-20T14:59:52.844Z,21.80
2022-08-20T15:02:20.341Z,16.90
2022-08-20T15:04:52.308Z,19.30
2022-08-20T15:07:26.335Z,15.40
2022-08-20T15:09:54.218Z,21.10
2022-08-20T15:12:22.073Z,15.40
2022-08-20T15:14:50.005Z,18.30
2022-08-20T15:17:22.065Z,16.80
2022-08-20T15:19:49.696Z,17.80
2022-08-20T15:22:17.858Z,16.30
2022-08-20T15:24:44.808Z,19.00
2022-08-20T15:27:18.015Z,18.90
2022-08-20T15:29:48.147Z,10.20
2022-08-20T15:32:15.009Z,12.20
2022-08-20T15:34:42.096Z,17.60
2022-08-20T15:37:11.725Z,14.70
2022-08-20T15:39:40.284Z,15.40
2022-08-20T15:42:08.190Z,20.30
2022-08-20T15:44:35.790Z,22.30
2022-08-20T15:47:21.989Z,15.90
2022-08-20T15:49:52.979Z,14.50
2022-08-20T15:52:20.020Z,18.40
2022-08-20T15:54:47.645Z,15.80
2022-08-20T15:57:44.589Z,15.10
2022-08-20T16:00:20.240Z,20.50
2022-08-20T16:03:06.339Z,17.10
2022-08-20T16:05:50.201Z,14.30
2022-08-20T16:08:48.397Z,19.40
2022-08-20T16:11:33.345Z,11.90
2022-08-20T16:14:17.373Z,15.10
2022-08-20T16:19:27.896Z,16.20
2022-08-20T16:21:58.090Z,14.80
2022-08-20T16:24:25.209Z,16.20
2022-08-20T16:27:12.651Z,16.00
2022-08-20T16:29:51.352Z,10.90
2022-08-20T16:32:28.578Z,14.10
2022-08-20T16:35:02.629Z,16.30
2022-08-20T16:37:41.544Z,16.30
2022-08-20T16:40:16.701Z,13.10
2022-08-20T16:42:47.905Z,16.10
2022-08-20T16:45:22.042Z,14.80
2022-08-20T16:47:50.848Z,17.00
2022-08-20T16:50:23.005Z,15.10
2022-08-20T16:52:51.906Z,10.90
2022-08-20T16:55:21.832Z,16.70
2022-08-20T16:57:49.073Z,14.10
2022-08-20T17:00:22.220Z,12.10
2022-08-20T17:03:07.210Z,13.60
2022-08-20T17:05:51.873Z,15.60
2022-08-20T17:08:26.006Z,17.50
2022-08-20T17:11:13.786Z,17.50
2022-08-20T17:13:45.227Z,19.40
2022-08-20T17:16:14.027Z,14.60
2022-08-20T17:18:43.981Z,12.40
2022-08-20T17:21:13.548Z,13.30
2022-08-20T17:23:56.362Z,17.90
2022-08-20T17:26:30.493Z,16.70
2022-08-20T17:29:01.418Z,15.60
2022-08-20T17:31:38.800Z,16.70
2022-08-20T17:34:14.587Z,16.20
2022-08-20T17:36:54.994Z,12.40
2022-08-20T17:39:25.282Z,19.90
2022-08-20T17:42:04.803Z,16.50
2022-08-20T17:44:35.016Z,20.70
2022-08-20T17:47:05.249Z,13.90
2022-08-20T17:49:38.528Z,14.80
2022-08-20T17:52:13.172Z,14.80
2022-08-20T17:54:42.574Z,15.40
2022-08-20T17:57:14.472Z,14.80
2022-08-20T18:00:00.599Z,17.70
2022-08-20T18:02:34.016Z,12.80
2022-08-20T18:05:02.033Z,18.40
2022-08-20T18:07:44.401Z,13.60
2022-08-20T18:10:18.825Z,15.50
2022-08-20T18:12:51.892Z,18.50
2022-08-20T18:15:24.713Z,15.40
2022-08-20T18:18:15.770Z,21.20
2022-08-20T18:20:56.796Z,17.30
2022-08-20T18:23:28.838Z,18.00
2022-08-20T18:26:09.844Z,15.50
2022-08-20T18:28:43.695Z,16.00
2022-08-20T18:31:25.247Z,17.70
2022-08-20T18:33:52.068Z,15.70
2022-08-20T18:36:19.457Z,18.10
2022-08-20T18:39:03.429Z,16.70
2022-08-20T18:41:33.095Z,19.30
2022-08-20T18:44:05.435Z,17.40
2022-08-20T18:46:33.112Z,18.90
2022-08-20T18:49:03.985Z,22.00
2022-08-20T18:51:41.238Z,24.00
2022-08-20T18:54:09.164Z,23.30
2022-08-20T18:56:40.579Z,23.00
2022-08-20T18:59:23.180Z,20.40
2022-08-20T19:01:50.305Z,20.30
2022-08-20T19:04:32.076Z,20.20
2022-08-20T19:07:06.102Z,24.20
2022-08-20T19:09:49.180Z,21.80
2022-08-20T19:12:41.437Z,20.80
2022-08-20T19:15:12.057Z,22.00
2022-08-20T19:17:59.752Z,20.10
2022-08-20T19:20:30.806Z,19.80
2022-08-20T19:23:05.249Z,21.60
2022-08-20T19:25:36.671Z,15.70
2022-08-20T19:28:15.104Z,17.00
2022-08-20T19:30:43.533Z,18.70
2022-08-20T19:33:10.810Z,25.60
2022-08-20T19:35:38.104Z,22.10
2022-08-20T19:38:14.505Z,26.60
2022-08-20T19:40:46.236Z,18.50
2022-08-20T19:43:17.713Z,24.50
2022-08-20T19:45:48.649Z,20.50
2022-08-20T19:48:32.403Z,21.00
2022-08-20T19:51:14.685Z,25.50
2022-08-20T19:53:47.613Z,23.30
2022-08-20T19:56:21.600Z,22.80
2022-08-20T19:59:07.054Z,27.80
2022-08-20T20:01:35.881Z,22.10
2022-08-20T20:04:05.920Z,28.40
2022-08-20T20:06:37.655Z,25.60
2022-08-20T20:09:13.759Z,24.60
2022-08-20T20:11:46.049Z,26.30
2022-08-20T20:14:15.801Z,26.20
2022-08-20T20:16:42.860Z,31.00
2022-08-20T20:19:28.229Z,23.40
2022-08-20T20:22:23.826Z,23.90
2022-08-20T20:25:02.602Z,27.70
2022-08-20T20:27:32.220Z,27.50
2022-08-20T20:30:01.556Z,30.30
2022-08-20T20:32:30.455Z,29.30
2022-08-20T20:35:00.385Z,24.70
2022-08-20T20:37:48.913Z,25.90
2022-08-20T20:40:28.449Z,27.00
2022-08-20T20:43:06.761Z,29.20
2022-08-20T20:45:39.102Z,32.10
2022-08-20T20:48:12.579Z,41.80
2022-08-20T20:50:39.979Z,33.90
2022-08-20T20:53:06.983Z,35.10
2022-08-20T20:55:37.529Z,32.90
2022-08-20T20:58:04.919Z,26.40
2022-08-20T21:00:33.565Z,31.50
2022-08-20T21:03:04.021Z,26.90
2022-08-20T21:05:32.306Z,22.50
2022-08-20T21:08:04.115Z,34.20
2022-08-20T21:10:34.947Z,26.50
2022-08-20T21:13:04.041Z,26.30
2022-08-20T21:15:33.182Z,34.20
2022-08-20T21:18:02.318Z,31.70
2022-08-20T21:20:30.151Z,27.70
2022-08-20T21:22:59.019Z,28.90
2022-08-20T21:25:28.003Z,28.00
2022-08-20T21:27:55.590Z,26.00
2022-08-20T21:30:24.213Z,24.70
2022-08-20T21:32:51.589Z,20.10
2022-08-20T21:35:19.272Z,30.90
2022-08-20T21:37:46.130Z,27.60
2022-08-20T21:40:14.457Z,21.90
2022-08-20T21:42:45.339Z,25.90
2022-08-20T21:45:18.487Z,29.10
2022-08-20T21:47:46.774Z,23.50
2022-08-20T21:50:18.792Z,28.60
2022-08-20T21:52:59.171Z,25.40
2022-08-20T21:55:29.694Z,19.10
2022-08-20T21:57:57.457Z,26.00
2022-08-20T22:00:45.459Z,25.50
2022-08-20T22:03:13.354Z,28.30
2022-08-20T22:05:42.079Z,24.00
2022-08-20T22:08:09.915Z,21.80
2022-08-20T22:10:37.005Z,18.80
2022-08-20T22:13:03.973Z,21.00
2022-08-20T22:15:30.922Z,23.60
2022-08-20T22:17:57.777Z,22.50
2022-08-20T22:20:25.312Z,25.30
2022-08-20T22:22:52.222Z,26.70
2022-08-20T22:25:19.157Z,21.70
2022-08-20T22:27:46.227Z,24.00
2022-08-20T22:30:13.211Z,24.40
2022-08-20T22:32:52.097Z,22.90
2022-08-20T22:35:19.745Z,23.60
2022-08-20T22:37:46.651Z,20.40
2022-08-20T22:40:13.617Z,23.50
2022-08-20T22:42:40.537Z,21.40
2022-08-20T22:45:14.593Z,25.70
2022-08-20T22:47:43.064Z,21.10
2022-08-20T22:50:12.279Z,20.30
2022-08-20T22:52:42.065Z,20.00
2022-08-20T22:55:09.801Z,17.60
2022-08-20T22:57:38.250Z,20.40
2022-08-20T23:00:09.646Z,15.50
2022-08-20T23:02:36.526Z,16.20
2022-08-20T23:05:04.651Z,25.40
2022-08-20T23:07:31.668Z,23.00
2022-08-20T23:09:58.545Z,25.80
2022-08-20T23:12:25.490Z,19.70
2022-08-20T23:14:52.877Z,18.70
2022-08-20T23:17:20.022Z,19.80
2022-08-20T23:19:49.079Z,19.00
2022-08-20T23:22:17.539Z,21.80
2022-08-20T23:24:44.891Z,19.70
2022-08-20T23:27:15.994Z,25.20
2022-08-20T23:29:43.208Z,20.90
2022-08-20T23:32:10.707Z,28.10
2022-08-20T23:34:38.071Z,23.90
2022-08-20T23:37:06.097Z,29.50
2022-08-20T23:39:33.887Z,25.30
2022-08-20T23:42:01.575Z,26.40
2022-08-20T23:44:28.566Z,29.70
2022-08-20T23:46:58.322Z,26.60
2022-08-20T23:49:27.110Z,24.60
2022-08-20T23:51:54.461Z,25.10
2022-08-20T23:54:21.621Z,27.20
2022-08-20T23:56:48.515Z,29.10
2022-08-20T23:59:15.575Z,26.50
